Time;durP1;ratioP1;P1;durP2;ratioP2;P2;SDS_P1;SDS_P2;PMS_P1;PMS_P2;Temp;Humidity;BMP_temperature;BMP_pressure;BME280_temperature;BME280_humidity;BME280_pressure;Samples;Min_cycle;Max_cycle;Signal;HPM_P1;HPM_P2
2022/09/10 00:02:24;;;;;;;1.50;0.93;;;16.70;98.20;;;;;;4956870;28;20485;-78
2022/09/10 00:04:52;;;;;;;1.50;1.00;;;16.70;98.20;;;;;;4955826;28;20525;-78
2022/09/10 00:07:19;;;;;;;1.50;1.00;;;16.70;98.20;;;;;;4955308;28;20723;-78
2022/09/10 00:09:46;;;;;;;1.47;0.93;;;16.70;98.20;;;;;;4956235;28;20501;-78
2022/09/10 00:12:14;;;;;;;1.50;0.90;;;16.70;98.20;;;;;;4959477;28;20490;-78
2022/09/10 00:14:41;;;;;;;1.50;1.00;;;16.70;98.20;;;;;;4957283;28;20546;-78
2022/09/10 00:17:08;;;;;;;1.50;1.00;;;16.70;98.20;;;;;;4956752;28;20493;-78
2022/09/10 00:19:35;;;;;;;1.50;1.00;;;16.70;98.20;;;;;;4955761;28;20490;-78
2022/09/10 00:22:03;;;;;;;1.50;1.00;;;16.70;98.20;;;;;;4957179;28;20569;-78
2022/09/10 00:24:30;;;;;;;1.50;0.90;;;16.70;98.20;;;;;;4964253;28;20661;-78
2022/09/10 00:26:58;;;;;;;1.50;1.00;;;16.70;98.20;;;;;;4961734;28;20864;-78
2022/09/10 00:29:27;;;;;;;1.50;1.00;;;16.70;98.20;;;;;;4957970;28;20554;-77
2022/09/10 00:31:54;;;;;;;1.50;0.90;;;16.60;98.20;;;;;;4952383;28;20521;-78
2022/09/10 00:34:21;;;;;;;1.50;0.90;;;16.60;98.20;;;;;;4957773;28;20462;-78
2022/09/10 00:36:48;;;;;;;1.50;0.90;;;16.60;98.20;;;;;;4952113;28;20486;-77
2022/09/10 00:39:17;;;;;;;1.50;0.90;;;16.60;98.20;;;;;;4959819;28;20525;-77
2022/09/10 00:41:47;;;;;;;1.50;1.00;;;16.70;98.20;;;;;;4955921;28;20490;-77
2022/09/10 00:45:06;;;;;;;1.50;1.00;;;16.70;98.20;;;;;;4958601;28;20948;-78
2022/09/10 00:47:39;;;;;;;1.50;1.00;;;16.70;98.20;;;;;;4921999;29;20538;-78
2022/09/10 00:50:16;;;;;;;1.50;0.90;;;16.80;98.20;;;;;;4931349;29;21001;-78
2022/09/10 00:52:44;;;;;;;1.50;1.00;;;16.80;98.20;;;;;;4953513;28;20579;-78
2022/09/10 00:55:12;;;;;;;1.50;0.90;;;16.90;98.20;;;;;;4961386;28;20548;-77
2022/09/10 00:57:39;;;;;;;1.50;0.90;;;16.90;98.20;;;;;;4962345;28;20490;-78
2022/09/10 01:00:12;;;;;;;1.50;1.00;;;16.90;98.20;;;;;;4968007;28;20489;-78
2022/09/10 01:02:42;;;;;;;1.50;1.00;;;17.00;98.20;;;;;;4960510;28;20532;-77
2022/09/10 01:05:10;;;;;;;1.50;0.90;;;17.00;98.20;;;;;;4955928;28;20469;-78
2022/09/10 01:07:38;;;;;;;1.50;0.90;;;17.00;98.20;;;;;;4959478;28;20800;-78
2022/09/10 01:10:08;;;;;;;1.50;0.93;;;17.00;98.20;;;;;;4953071;28;20486;-78
2022/09/10 01:12:54;;;;;;;1.50;0.90;;;17.00;98.20;;;;;;4954519;28;20529;-78
2022/09/10 01:15:31;;;;;;;1.50;0.90;;;17.00;98.20;;;;;;4956067;28;21011;-78
2022/09/10 01:18:11;;;;;;;1.50;0.90;;;17.00;98.20;;;;;;4955565;28;20495;-78
2022/09/10 01:21:00;;;;;;;1.50;0.90;;;17.00;98.20;;;;;;4948435;28;20514;-79
2022/09/10 01:24:16;;;;;;;1.50;1.00;;;17.00;98.20;;;;;;4928706;28;20511;-79
2022/09/10 01:27:06;;;;;;;1.50;0.90;;;17.10;98.20;;;;;;4956852;28;20580;-79
2022/09/10 01:29:39;;;;;;;1.47;0.97;;;17.10;98.20;;;;;;4970000;28;20479;-79
2022/09/10 01:32:14;;;;;;;1.50;1.00;;;17.00;98.20;;;;;;4961204;28;20486;-80
2022/09/10 01:34:47;;;;;;;1.50;0.90;;;17.00;98.20;;;;;;4955732;28;20824;-79
2022/09/10 01:37:31;;;;;;;1.50;0.97;;;17.00;98.20;;;;;;4956084;28;20493;-79
2022/09/10 01:40:00;;;;;;;1.50;0.90;;;17.00;98.20;;;;;;4955023;28;20501;-79
2022/09/10 01:42:28;;;;;;;1.50;1.00;;;17.00;98.20;;;;;;4949529;28;20486;-79
2022/09/10 01:44:58;;;;;;;1.50;0.90;;;17.00;98.20;;;;;;4947395;28;20971;-79
2022/09/10 01:47:54;;;;;;;1.50;1.00;;;17.00;98.20;;;;;;4948231;28;20490;-79
2022/09/10 01:50:24;;;;;;;1.50;0.90;;;17.00;98.20;;;;;;4952609;28;20505;-79
2022/09/10 01:53:12;;;;;;;1.47;1.00;;;17.00;98.20;;;;;;4945792;28;20482;-79
2022/09/10 01:55:47;;;;;;;1.50;1.00;;;16.90;98.20;;;;;;4931750;29;20495;-78
2022/09/10 01:58:23;;;;;;;1.50;1.00;;;16.90;98.20;;;;;;4922910;29;20475;-77
2022/09/10 02:01:11;;;;;;;1.50;1.00;;;17.00;98.20;;;;;;4927112;28;20471;-78
2022/09/10 02:03:42;;;;;;;1.50;1.00;;;17.00;98.20;;;;;;4943291;29;21145;-77
2022/09/10 02:06:14;;;;;;;1.50;0.90;;;16.90;98.20;;;;;;4924803;28;21213;-77
2022/09/10 02:08:44;;;;;;;1.47;0.90;;;16.90;98.20;;;;;;4938733;29;20483;-78
2022/09/10 02:11:13;;;;;;;1.50;0.90;;;16.90;98.20;;;;;;4926887;28;20510;-78
2022/09/10 02:13:41;;;;;;;1.50;1.00;;;16.90;98.20;;;;;;4942952;28;20718;-77
2022/09/10 02:16:14;;;;;;;1.50;1.00;;;16.90;98.20;;;;;;4924812;28;20494;-78
2022/09/10 02:18:42;;;;;;;1.50;0.97;;;16.90;98.20;;;;;;4943684;29;20578;-77
2022/09/10 02:21:10;;;;;;;1.50;0.90;;;16.90;98.20;;;;;;4928919;28;21020;-78
2022/09/10 02:23:41;;;;;;;1.50;0.90;;;16.90;98.20;;;;;;4950111;29;21019;-77
2022/09/10 02:26:09;;;;;;;1.50;1.00;;;16.90;98.20;;;;;;4930262;28;20519;-78
2022/09/10 02:28:36;;;;;;;1.50;0.90;;;16.90;98.20;;;;;;4950149;29;20467;-78
2022/09/10 02:31:03;;;;;;;1.50;1.00;;;16.90;98.20;;;;;;4929225;28;20478;-78
2022/09/10 02:33:32;;;;;;;1.50;0.90;;;16.90;98.20;;;;;;4952581;28;20472;-77
2022/09/10 02:36:00;;;;;;;1.50;1.00;;;16.90;98.20;;;;;;4926984;28;20487;-78
2022/09/10 02:38:28;;;;;;;1.50;0.90;;;16.90;98.20;;;;;;4949063;29;20550;-77
2022/09/10 02:40:58;;;;;;;1.50;1.00;;;16.90;98.20;;;;;;4927926;28;20472;-78
2022/09/10 02:43:25;;;;;;;1.50;1.00;;;16.90;98.20;;;;;;4949055;29;20801;-78
2022/09/10 02:45:56;;;;;;;1.50;0.90;;;16.80;98.20;;;;;;4926118;28;20923;-77
2022/09/10 02:48:24;;;;;;;1.50;1.00;;;16.80;98.20;;;;;;4945567;29;20473;-78
2022/09/10 02:50:53;;;;;;;1.50;1.00;;;16.80;98.20;;;;;;4926063;28;20889;-78
2022/09/10 02:53:20;;;;;;;1.50;1.00;;;16.80;98.20;;;;;;4966359;28;20473;-77
2022/09/10 02:55:48;;;;;;;1.50;1.00;;;16.80;98.20;;;;;;4964161;28;20494;-77
2022/09/10 02:58:16;;;;;;;1.50;1.00;;;16.80;98.20;;;;;;4971061;28;20478;-77
2022/09/10 03:00:44;;;;;;;1.50;1.00;;;16.90;98.20;;;;;;4955833;28;20664;-78
2022/09/10 03:03:11;;;;;;;1.50;1.00;;;16.90;98.20;;;;;;4960136;28;20509;-77
2022/09/10 03:05:40;;;;;;;1.50;1.00;;;16.90;98.20;;;;;;4954599;29;20554;-78
2022/09/10 03:08:09;;;;;;;1.50;0.90;;;16.80;98.20;;;;;;4966357;28;20493;-78
2022/09/10 03:10:38;;;;;;;1.50;1.00;;;16.80;98.20;;;;;;4957245;28;20541;-78
2022/09/10 03:13:05;;;;;;;1.50;1.00;;;16.80;98.20;;;;;;4959362;28;20485;-78
2022/09/10 03:15:32;;;;;;;1.50;1.00;;;16.90;98.20;;;;;;4954811;28;20483;-78
2022/09/10 03:17:59;;;;;;;1.50;1.10;;;16.90;98.20;;;;;;4966429;28;20478;-78
2022/09/10 03:20:26;;;;;;;1.50;1.00;;;16.90;98.20;;;;;;4954934;29;20578;-78
2022/09/10 03:22:54;;;;;;;1.50;0.90;;;16.90;98.20;;;;;;4957269;28;21655;-78
2022/09/10 03:25:23;;;;;;;1.50;0.93;;;16.90;98.20;;;;;;4955000;28;20471;-78
2022/09/10 03:27:50;;;;;;;1.50;1.00;;;16.90;98.20;;;;;;4963246;28;20549;-78
2022/09/10 03:30:17;;;;;;;1.50;0.90;;;17.00;98.20;;;;;;4956256;28;20522;-78
2022/09/10 03:32:44;;;;;;;1.50;1.00;;;16.90;98.20;;;;;;4960720;28;20743;-78
2022/09/10 03:35:12;;;;;;;1.70;1.50;;;17.00;98.20;;;;;;4960200;28;20642;-78
2022/09/10 03:37:39;;;;;;;1.50;0.90;;;17.00;98.20;;;;;;4961263;28;20489;-78
2022/09/10 03:40:08;;;;;;;1.50;0.90;;;17.00;98.20;;;;;;4955433;28;20493;-77
2022/09/10 03:42:36;;;;;;;1.47;0.90;;;17.00;98.20;;;;;;4961800;28;20493;-78
2022/09/10 03:45:04;;;;;;;1.50;0.90;;;17.00;98.20;;;;;;4955112;28;20494;-77
2022/09/10 03:47:31;;;;;;;1.50;0.90;;;17.00;98.20;;;;;;4957620;28;20603;-77
2022/09/10 03:49:58;;;;;;;1.47;0.90;;;17.00;98.20;;;;;;4955330;28;20490;-77
2022/09/10 03:52:25;;;;;;;1.50;1.00;;;17.00;98.20;;;;;;4954410;28;20487;-77
2022/09/10 03:54:52;;;;;;;1.50;1.00;;;17.00;98.20;;;;;;4939123;29;20471;-77
2022/09/10 03:57:20;;;;;;;1.50;1.00;;;16.90;98.20;;;;;;4935730;28;20491;-77
2022/09/10 03:59:48;;;;;;;1.50;0.90;;;17.00;98.20;;;;;;4936670;29;20494;-78
2022/09/10 04:02:16;;;;;;;1.50;0.90;;;16.90;98.20;;;;;;4934518;28;20489;-78
2022/09/10 04:04:43;;;;;;;1.50;1.00;;;16.90;98.20;;;;;;4936613;29;20488;-78
2022/09/10 04:07:10;;;;;;;1.47;1.00;;;16.90;98.20;;;;;;4940584;28;20483;-78
2022/09/10 04:09:38;;;;;;;1.50;1.00;;;16.90;98.20;;;;;;4938793;29;20578;-78
2022/09/10 04:12:05;;;;;;;1.50;1.00;;;16.90;98.20;;;;;;4939090;28;20521;-78
2022/09/10 04:14:33;;;;;;;1.50;1.00;;;16.90;98.20;;;;;;4939325;28;20722;-77
2022/09/10 04:17:01;;;;;;;1.50;0.90;;;16.90;98.20;;;;;;4932516;28;20489;-79
2022/09/10 04:19:28;;;;;;;1.50;1.00;;;16.90;98.20;;;;;;4938383;29;20498;-77
2022/09/10 04:21:56;;;;;;;1.50;1.00;;;17.00;98.20;;;;;;4934741;28;20489;-77
2022/09/10 04:24:23;;;;;;;1.50;0.90;;;17.00;98.20;;;;;;4939091;29;20495;-78
2022/09/10 04:26:51;;;;;;;1.47;0.90;;;17.00;98.20;;;;;;4934728;28;20486;-79
2022/09/10 04:30:02;;;;;;;1.50;0.90;;;16.90;98.20;;;;;;4940389;29;20495;-79
2022/09/10 04:32:30;;;;;;;1.47;0.90;;;16.90;98.20;;;;;;4935072;28;20521;-78
2022/09/10 04:34:57;;;;;;;1.47;1.00;;;16.90;98.20;;;;;;4935461;29;20468;-78
2022/09/10 04:37:26;;;;;;;1.50;1.00;;;16.90;98.20;;;;;;4938898;28;20478;-78
2022/09/10 04:39:53;;;;;;;1.50;0.90;;;16.90;98.20;;;;;;4934733;29;20517;-78
2022/09/10 04:42:21;;;;;;;1.50;0.90;;;16.90;98.20;;;;;;4934255;28;20563;-78
2022/09/10 04:44:49;;;;;;;1.47;0.90;;;16.90;98.20;;;;;;4937457;29;20522;-78
2022/09/10 04:47:17;;;;;;;1.50;0.90;;;16.90;98.20;;;;;;4940883;28;20475;-78
2022/09/10 04:49:46;;;;;;;1.50;0.90;;;16.90;98.20;;;;;;4935875;29;20488;-78
2022/09/10 04:52:13;;;;;;;1.50;0.90;;;16.90;98.20;;;;;;4939345;28;20491;-78
2022/09/10 04:54:40;;;;;;;1.50;0.93;;;16.90;98.20;;;;;;4937685;29;20468;-78
2022/09/10 04:57:07;;;;;;;1.50;1.00;;;16.90;98.20;;;;;;4931924;28;20917;-78
2022/09/10 04:59:34;;;;;;;1.50;1.10;;;16.90;98.20;;;;;;4938578;28;20562;-78
2022/09/10 05:02:02;;;;;;;1.50;0.97;;;16.90;98.20;;;;;;4930767;28;20489;-78
2022/09/10 05:04:29;;;;;;;1.47;0.90;;;16.90;98.20;;;;;;4939215;29;20468;-77
2022/09/10 05:06:58;;;;;;;1.50;1.00;;;16.90;98.20;;;;;;4935382;28;20490;-78
2022/09/10 05:09:29;;;;;;;1.50;1.00;;;16.90;98.20;;;;;;4938523;29;20495;-78
2022/09/10 05:11:57;;;;;;;1.50;0.90;;;16.90;98.20;;;;;;4934235;28;20487;-77
2022/09/10 05:14:25;;;;;;;1.50;0.90;;;16.90;98.20;;;;;;4939757;29;20880;-77
2022/09/10 05:16:54;;;;;;;1.47;0.90;;;16.90;98.20;;;;;;4933305;28;20483;-78
2022/09/10 05:19:21;;;;;;;1.50;1.00;;;16.90;98.20;;;;;;4939074;29;20487;-78
2022/09/10 05:21:49;;;;;;;1.50;0.90;;;16.90;98.20;;;;;;4929914;28;20482;-78
2022/09/10 05:24:18;;;;;;;1.50;0.90;;;16.90;98.20;;;;;;4944199;29;20479;-78
2022/09/10 05:26:45;;;;;;;1.50;0.93;;;16.90;98.20;;;;;;4930937;28;20501;-78
2022/09/10 05:29:12;;;;;;;1.50;1.00;;;17.00;98.20;;;;;;4943185;29;20492;-78
2022/09/10 05:31:40;;;;;;;1.50;0.90;;;17.00;98.20;;;;;;4931089;28;20574;-77
2022/09/10 05:34:07;;;;;;;1.50;1.00;;;17.00;98.20;;;;;;4940079;29;20986;-77
2022/09/10 05:36:35;;;;;;;1.47;0.90;;;17.00;98.20;;;;;;4934996;28;20533;-77
2022/09/10 05:39:03;;;;;;;1.50;0.90;;;17.00;98.20;;;;;;4944774;29;21071;-77
2022/09/10 05:41:32;;;;;;;1.50;0.90;;;17.00;98.20;;;;;;4930754;28;20487;-77
2022/09/10 05:44:00;;;;;;;1.50;0.93;;;17.00;98.20;;;;;;4936517;29;20472;-77
2022/09/10 05:46:29;;;;;;;1.50;0.97;;;17.10;98.20;;;;;;4926013;28;20481;-79
2022/09/10 05:48:57;;;;;;;1.50;1.00;;;17.10;98.20;;;;;;4939711;29;20492;-78
2022/09/10 05:51:27;;;;;;;1.50;0.90;;;17.10;98.20;;;;;;4930278;28;20558;-78
2022/09/10 05:53:54;;;;;;;1.50;0.90;;;17.10;98.20;;;;;;4944542;29;20503;-77
2022/09/10 05:56:22;;;;;;;1.50;0.90;;;17.10;98.20;;;;;;4936240;28;20477;-77
2022/09/10 05:58:50;;;;;;;1.50;0.90;;;17.10;98.20;;;;;;4947882;28;20797;-78
2022/09/10 06:01:17;;;;;;;1.50;1.00;;;17.10;98.20;;;;;;4933504;28;20470;-80
2022/09/10 06:03:45;;;;;;;1.50;0.90;;;17.10;98.20;;;;;;4952067;28;20471;-78
2022/09/10 06:06:12;;;;;;;1.50;0.90;;;17.10;98.20;;;;;;4933124;28;21631;-78
2022/09/10 06:08:39;;;;;;;1.50;0.90;;;17.10;98.20;;;;;;4949706;29;20903;-78
2022/09/10 06:11:07;;;;;;;1.50;0.90;;;17.10;98.20;;;;;;4930622;28;20467;-79
2022/09/10 06:13:35;;;;;;;1.70;1.20;;;17.10;98.20;;;;;;4942566;28;21003;-81
2022/09/10 06:16:06;;;;;;;1.50;1.00;;;17.10;98.20;;;;;;4912585;28;20499;-78
2022/09/10 06:18:33;;;;;;;1.50;0.90;;;17.10;98.20;;;;;;4931142;29;20504;-78
2022/09/10 06:21:05;;;;;;;1.50;0.90;;;17.10;98.20;;;;;;4909318;29;20473;-78
2022/09/10 06:23:32;;;;;;;1.50;1.00;;;17.10;98.20;;;;;;4941783;29;20824;-78
2022/09/10 06:26:03;;;;;;;1.50;1.00;;;17.10;98.20;;;;;;4911317;29;20464;-79
2022/09/10 06:28:31;;;;;;;1.50;1.00;;;17.10;98.20;;;;;;4933735;29;20461;-79
2022/09/10 06:30:58;;;;;;;1.50;0.93;;;17.00;98.20;;;;;;4915705;28;20468;-79
2022/09/10 06:33:27;;;;;;;1.47;0.90;;;17.00;98.20;;;;;;4929490;29;20465;-78
2022/09/10 06:35:55;;;;;;;1.43;0.93;;;17.00;98.20;;;;;;4919666;28;20472;-79
2022/09/10 06:38:23;;;;;;;1.50;0.90;;;17.00;98.20;;;;;;4939253;29;20504;-78
2022/09/10 06:40:55;;;;;;;1.50;0.90;;;17.00;98.20;;;;;;4917956;28;20464;-79
2022/09/10 06:43:24;;;;;;;1.50;0.97;;;17.00;98.20;;;;;;4934099;29;20479;-79
2022/09/10 06:46:06;;;;;;;1.50;1.00;;;17.10;98.20;;;;;;4908163;28;21080;-79
2022/09/10 06:48:38;;;;;;;1.50;0.90;;;17.10;98.20;;;;;;4933902;29;20461;-78
2022/09/10 06:51:07;;;;;;;1.50;0.90;;;17.10;98.20;;;;;;4912806;29;20472;-78
2022/09/10 06:53:38;;;;;;;1.50;0.90;;;17.10;98.20;;;;;;4949790;29;20472;-79
2022/09/10 06:56:08;;;;;;;1.50;0.90;;;17.20;98.20;;;;;;4936208;28;20556;-79
2022/09/10 06:58:39;;;;;;;1.50;1.00;;;17.20;98.20;;;;;;4952800;29;20499;-79
2022/09/10 07:01:08;;;;;;;1.50;0.90;;;17.20;98.20;;;;;;4929686;28;20597;-79
2022/09/10 07:06:23;;;;;;;1.50;0.90;;;17.20;98.20;;;;;;4933734;28;21035;-80
2022/09/10 07:08:54;;;;;;;1.50;0.90;;;17.20;98.20;;;;;;4953848;28;20531;-79
2022/09/10 07:11:21;;;;;;;1.50;0.90;;;17.30;98.20;;;;;;4941416;28;20474;-79
2022/09/10 07:13:52;;;;;;;1.50;0.90;;;17.30;98.20;;;;;;4951467;28;20471;-79
2022/09/10 07:16:20;;;;;;;1.50;0.90;;;17.30;98.20;;;;;;4933035;28;20483;-80
2022/09/10 07:18:56;;;;;;;1.50;1.00;;;17.30;98.20;;;;;;4956398;28;20487;-80
2022/09/10 07:21:29;;;;;;;1.50;0.90;;;17.30;98.20;;;;;;4940748;28;20855;-80
2022/09/10 07:23:57;;;;;;;1.50;1.00;;;17.30;98.20;;;;;;4954857;29;20533;-80
2022/09/10 07:26:25;;;;;;;1.50;0.90;;;17.40;98.20;;;;;;4943887;28;20499;-80
2022/09/10 07:28:54;;;;;;;1.50;0.90;;;17.40;98.20;;;;;;4952964;28;20499;-81
2022/09/10 07:31:24;;;;;;;1.70;1.40;;;17.30;98.20;;;;;;4937485;28;20557;-80
2022/09/10 07:33:54;;;;;;;1.60;1.10;;;17.30;98.20;;;;;;4949155;28;20504;-79
2022/09/10 07:36:23;;;;;;;1.50;1.00;;;17.30;98.20;;;;;;4940685;28;20544;-78
2022/09/10 07:38:53;;;;;;;1.50;1.00;;;17.30;98.20;;;;;;4954264;28;20499;-78
2022/09/10 07:41:35;;;;;;;1.50;0.90;;;17.40;98.20;;;;;;4939207;28;20493;-78
2022/09/10 07:44:04;;;;;;;1.50;0.97;;;17.40;98.20;;;;;;4957461;28;20471;-77
2022/09/10 07:46:41;;;;;;;1.50;1.00;;;17.40;98.20;;;;;;4941645;28;20565;-79
2022/09/10 07:49:19;;;;;;;1.50;0.90;;;17.40;98.20;;;;;;4942127;29;20562;-78
2022/09/10 07:52:24;;;;;;;1.50;1.00;;;17.40;98.20;;;;;;4932774;28;20488;-78
2022/09/10 07:54:55;;;;;;;1.50;0.90;;;17.40;98.20;;;;;;4928739;29;20472;-77
2022/09/10 07:57:22;;;;;;;1.50;0.90;;;17.40;98.20;;;;;;4924575;28;20483;-77
2022/09/10 07:59:52;;;;;;;1.50;1.00;;;17.40;98.20;;;;;;4926331;29;20488;-79
2022/09/10 08:02:20;;;;;;;1.53;1.00;;;17.50;98.20;;;;;;4925967;28;20480;-77
2022/09/10 08:05:09;;;;;;;1.50;0.90;;;17.60;98.20;;;;;;4932533;29;20469;-77
2022/09/10 08:07:39;;;;;;;1.50;0.90;;;17.60;98.20;;;;;;4927177;28;20488;-77
2022/09/10 08:10:22;;;;;;;1.50;0.90;;;17.70;98.20;;;;;;4923849;29;20859;-79
2022/09/10 08:12:50;;;;;;;1.50;1.00;;;17.70;98.20;;;;;;4930570;28;20486;-77
2022/09/10 08:15:27;;;;;;;1.50;1.00;;;17.70;98.20;;;;;;4934670;28;21250;-78
2022/09/10 08:17:54;;;;;;;1.50;0.90;;;17.70;98.20;;;;;;4932135;28;20490;-76
2022/09/10 08:20:25;;;;;;;1.50;0.90;;;17.70;98.20;;;;;;4931467;28;20519;-78
2022/09/10 08:22:56;;;;;;;1.50;0.93;;;17.80;98.20;;;;;;4926388;28;20488;-78
2022/09/10 08:25:26;;;;;;;1.50;1.00;;;17.80;98.20;;;;;;4933959;29;21084;-78
2022/09/10 08:27:54;;;;;;;1.50;1.00;;;17.90;98.20;;;;;;4930726;28;20483;-77
2022/09/10 08:31:12;;;;;;;1.50;0.90;;;17.90;98.20;;;;;;4931085;29;20494;-78
2022/09/10 08:39:33;;;;;;;1.50;0.90;;;17.90;98.20;;;;;;4921119;29;20487;-78
2022/09/10 08:42:30;;;;;;;1.50;0.90;;;17.90;98.20;;;;;;4927797;28;20518;-78
2022/09/10 08:45:27;;;;;;;1.50;0.90;;;18.00;98.20;;;;;;4935235;29;20531;-78
2022/09/10 08:48:09;;;;;;;1.50;0.90;;;18.00;98.20;;;;;;4932775;28;20482;-78
2022/09/10 08:50:41;;;;;;;1.50;0.90;;;18.00;98.20;;;;;;4930209;29;20491;-77
2022/09/10 08:53:24;;;;;;;1.50;0.90;;;18.10;98.20;;;;;;4930718;28;20486;-76
2022/09/10 08:56:02;;;;;;;1.50;0.90;;;18.10;98.20;;;;;;4909714;28;20470;-76
2022/09/10 08:58:42;;;;;;;1.50;0.90;;;18.20;98.20;;;;;;4937064;29;20555;-77
2022/09/10 09:01:15;;;;;;;1.50;0.90;;;18.30;98.20;;;;;;4922060;28;20577;-77
2022/09/10 09:03:46;;;;;;;1.50;0.90;;;18.30;98.20;;;;;;4930064;29;20463;-76
2022/09/10 09:06:29;;;;;;;1.50;0.90;;;18.40;98.20;;;;;;4914854;28;20466;-77
2022/09/10 09:09:00;;;;;;;1.50;1.00;;;18.30;98.20;;;;;;4929431;29;21032;-76
2022/09/10 09:11:39;;;;;;;1.50;0.90;;;18.30;98.20;;;;;;4923545;28;20510;-77
2022/09/10 09:14:38;;;;;;;1.50;0.90;;;18.30;98.20;;;;;;4929517;29;20564;-77
2022/09/10 09:17:36;;;;;;;1.50;0.90;;;18.30;98.20;;;;;;4923933;28;20483;-77
2022/09/10 09:20:14;;;;;;;1.50;0.90;;;18.30;98.20;;;;;;4927578;29;20523;-78
2022/09/10 09:22:51;;;;;;;1.50;0.90;;;18.30;98.20;;;;;;4927168;28;20550;-79
2022/09/10 09:25:26;;;;;;;1.50;0.90;;;18.30;98.20;;;;;;4924779;29;20475;-81
2022/09/10 09:27:56;;;;;;;1.50;0.90;;;18.20;98.20;;;;;;4923708;28;20482;-79
2022/09/10 09:30:27;;;;;;;1.50;0.90;;;18.20;98.20;;;;;;4930149;28;21393;-79
2022/09/10 09:33:03;;;;;;;1.50;0.90;;;18.20;98.20;;;;;;4929490;28;20491;-79
2022/09/10 09:35:35;;;;;;;1.50;0.90;;;18.10;98.20;;;;;;4928978;29;20566;-79
2022/09/10 09:38:23;;;;;;;1.50;1.10;;;18.00;98.20;;;;;;4929653;28;20483;-80
2022/09/10 09:40:55;;;;;;;2.13;1.13;;;17.90;98.20;;;;;;4924325;28;20467;-78
2022/09/10 09:43:45;;;;;;;1.50;0.90;;;17.90;98.20;;;;;;4943370;29;20467;-77
2022/09/10 09:46:30;;;;;;;1.50;0.90;;;17.80;98.20;;;;;;4924572;28;20538;-76
2022/09/10 09:49:05;;;;;;;1.50;1.00;;;17.90;98.20;;;;;;4939241;29;20546;-77
2022/09/10 09:51:36;;;;;;;1.50;0.90;;;17.90;98.20;;;;;;4928388;28;20605;-77
2022/09/10 09:54:11;;;;;;;1.50;1.00;;;17.90;98.20;;;;;;4962622;28;20501;-77
2022/09/10 09:56:46;;;;;;;1.50;0.90;;;17.90;98.20;;;;;;4955311;28;20501;-77
2022/09/10 09:59:26;;;;;;;1.50;0.90;;;18.00;98.20;;;;;;4961395;28;20490;-78
2022/09/10 10:01:59;;;;;;;1.47;0.90;;;18.10;98.20;;;;;;4956005;28;20496;-80
2022/09/10 10:04:32;;;;;;;1.50;1.00;;;18.10;98.20;;;;;;4959803;28;20502;-79
2022/09/10 10:07:02;;;;;;;1.50;1.00;;;18.10;98.20;;;;;;4948560;28;20526;-78
2022/09/10 10:09:44;;;;;;;1.50;0.90;;;18.10;98.20;;;;;;4961953;28;20478;-77
2022/09/10 10:12:20;;;;;;;1.50;0.90;;;18.10;98.20;;;;;;4944063;28;20515;-75
2022/09/10 10:14:48;;;;;;;1.50;0.90;;;18.10;98.20;;;;;;4954342;28;20533;-77
2022/09/10 10:17:37;;;;;;;1.50;0.90;;;18.10;98.20;;;;;;4940249;28;20490;-76
2022/09/10 10:20:08;;;;;;;1.50;0.90;;;18.10;98.20;;;;;;4959348;28;20496;-76
2022/09/10 10:22:36;;;;;;;1.43;0.90;;;18.10;98.20;;;;;;4942020;28;21353;-77
2022/09/10 10:25:07;;;;;;;1.50;1.00;;;18.10;98.20;;;;;;4961473;28;20521;-75
2022/09/10 10:27:38;;;;;;;1.50;0.90;;;18.00;98.20;;;;;;4946103;28;20490;-77
2022/09/10 10:30:21;;;;;;;1.50;0.90;;;18.00;98.20;;;;;;4956327;28;20481;-75
2022/09/10 10:32:55;;;;;;;1.50;0.90;;;18.10;98.20;;;;;;4943124;28;20497;-76
2022/09/10 10:35:36;;;;;;;1.50;0.90;;;18.10;98.20;;;;;;4959931;28;20467;-75
2022/09/10 10:38:30;;;;;;;1.50;0.90;;;18.10;98.20;;;;;;4945921;28;21108;-75
2022/09/10 10:41:25;;;;;;;1.50;0.90;;;18.20;98.20;;;;;;4943679;28;20573;-74
2022/09/10 10:44:17;;;;;;;1.50;0.97;;;18.20;98.20;;;;;;4954219;28;20496;-74
2022/09/10 10:46:54;;;;;;;1.50;0.90;;;18.20;98.20;;;;;;4950147;28;20597;-76
2022/09/10 10:49:31;;;;;;;1.50;1.00;;;18.30;98.20;;;;;;4957224;28;20561;-75
2022/09/10 10:52:10;;;;;;;1.50;0.90;;;18.30;98.20;;;;;;4957997;28;20945;-76
2022/09/10 10:55:00;;;;;;;1.50;0.90;;;18.40;98.20;;;;;;4965145;28;20463;-75
2022/09/10 10:57:52;;;;;;;;;;;;;;;;;;;;;
2022/09/10 11:00:40;;;;;;;1.50;0.90;;;18.50;98.20;;;;;;4908395;28;20505;-75
2022/09/10 11:03:15;;;;;;;1.50;0.90;;;18.50;98.20;;;;;;4950873;28;20479;-79
2022/09/10 11:05:46;;;;;;;1.57;1.00;;;18.50;98.20;;;;;;4968305;28;20466;-78
2022/09/10 11:08:30;;;;;;;1.50;0.90;;;18.50;98.20;;;;;;4938863;28;20495;-77
2022/09/10 11:11:04;;;;;;;1.50;0.90;;;18.40;98.20;;;;;;4956220;28;20471;-79
2022/09/10 11:13:40;;;;;;;1.50;0.93;;;18.30;98.20;;;;;;4950349;28;20860;-78
2022/09/10 11:16:15;;;;;;;1.50;0.90;;;18.20;98.20;;;;;;4950695;28;20555;-78
2022/09/10 11:18:56;;;;;;;1.50;0.90;;;18.20;98.20;;;;;;4961552;28;20494;-77
2022/09/10 11:21:33;;;;;;;1.50;0.90;;;18.20;98.20;;;;;;4949225;28;20478;-77
2022/09/10 11:24:08;;;;;;;1.50;0.90;;;18.20;98.20;;;;;;4957356;28;20538;-78
2022/09/10 11:26:41;;;;;;;1.50;1.00;;;18.20;98.20;;;;;;4943719;28;20485;-76
2022/09/10 11:29:26;;;;;;;1.50;0.90;;;18.20;98.20;;;;;;4959135;28;20545;-76
2022/09/10 11:42:19;;;;;;;1.50;0.97;;;18.50;98.20;;;;;;4829416;29;20487;-77
2022/09/10 11:45:04;;;;;;;1.50;0.90;;;18.60;98.20;;;;;;4955598;28;20475;-76
2022/09/10 11:47:39;;;;;;;1.50;0.90;;;18.70;98.20;;;;;;4943032;28;20557;-77
2022/09/10 11:50:38;;;;;;;1.50;0.90;;;18.80;98.20;;;;;;4966385;28;20488;-77
2022/09/10 11:53:06;;;;;;;1.50;0.90;;;18.90;98.20;;;;;;4950495;28;20562;-77
2022/09/10 11:55:46;;;;;;;1.60;1.20;;;18.90;98.20;;;;;;4963884;28;20459;-78
2022/09/10 11:58:22;;;;;;;1.50;0.90;;;18.90;98.20;;;;;;4931800;29;20992;-79
2022/09/10 12:01:07;;;;;;;1.50;0.90;;;18.80;98.20;;;;;;4952811;28;20461;-81
2022/09/10 12:04:09;;;;;;;1.50;1.00;;;18.80;98.20;;;;;;4954015;28;20467;-79
2022/09/10 12:06:55;;;;;;;1.50;0.90;;;18.70;98.20;;;;;;4948697;28;21040;-78
2022/09/10 12:09:33;;;;;;;1.50;0.90;;;18.60;98.20;;;;;;4963285;28;20597;-78
2022/09/10 12:12:19;;;;;;;1.50;1.00;;;18.60;98.20;;;;;;4948213;28;20482;-77
2022/09/10 12:14:48;;;;;;;1.50;0.90;;;18.70;98.20;;;;;;4959739;28;20472;-76
2022/09/10 12:17:27;;;;;;;1.50;0.93;;;18.80;98.20;;;;;;4955277;28;20488;-77
2022/09/10 12:19:58;;;;;;;1.50;0.90;;;19.00;98.20;;;;;;4968788;28;20501;-77
2022/09/10 12:22:33;;;;;;;1.50;0.90;;;19.20;98.20;;;;;;4946044;28;20483;-77
2022/09/10 12:25:06;;;;;;;1.60;1.10;;;19.40;98.20;;;;;;4962618;28;20522;-80
2022/09/10 12:27:47;;;;;;;1.50;0.90;;;19.40;98.20;;;;;;4955895;28;20489;-78
2022/09/10 12:30:59;;;;;;;1.50;0.90;;;19.40;98.20;;;;;;4962064;28;20481;-77
2022/09/10 12:34:25;;;;;;;1.87;1.10;;;19.30;98.20;;;;;;4910986;28;20589;-78
2022/09/10 12:37:35;;;;;;;1.50;0.90;;;19.30;98.20;;;;;;4948830;28;20501;-76
2022/09/10 12:40:39;;;;;;;1.50;0.90;;;19.30;98.20;;;;;;4957299;28;20549;-76
2022/09/10 12:43:40;;;;;;;1.50;0.90;;;19.40;98.20;;;;;;4940793;28;20540;-76
2022/09/10 12:46:30;;;;;;;1.50;0.90;;;19.50;98.20;;;;;;4949341;28;21201;-76
2022/09/10 12:49:19;;;;;;;1.50;0.90;;;19.60;98.20;;;;;;4958929;28;20489;-77
2022/09/10 12:51:59;;;;;;;1.80;1.30;;;19.70;98.20;;;;;;4948359;28;21018;-76
2022/09/10 12:54:48;;;;;;;1.50;0.90;;;19.90;98.20;;;;;;4961627;28;20465;-75
2022/09/10 12:57:49;;;;;;;1.53;0.90;;;20.20;98.20;;;;;;4956724;28;20529;-76
2022/09/10 13:00:22;;;;;;;1.50;0.90;;;20.60;98.20;;;;;;4962735;28;20489;-75
2022/09/10 13:03:00;;;;;;;1.60;1.00;;;20.80;98.20;;;;;;4951681;28;20536;-76
2022/09/10 13:05:35;;;;;;;1.60;1.00;;;20.90;98.20;;;;;;4970666;28;20466;-77
2022/09/10 13:08:24;;;;;;;1.57;0.90;;;20.90;98.20;;;;;;4956965;28;20557;-77
2022/09/10 13:11:28;;;;;;;1.50;1.00;;;21.00;98.20;;;;;;4955429;28;20821;-77
2022/09/10 13:14:11;;;;;;;1.50;0.90;;;21.00;98.20;;;;;;4961580;28;20466;-78
2022/09/10 13:16:53;;;;;;;;;;;;;;;;;;;;;
2022/09/10 13:19:55;;;;;;;1.50;0.90;;;21.10;98.20;;;;;;4962003;28;20513;-76
2022/09/10 13:22:56;;;;;;;1.50;0.90;;;21.10;98.20;;;;;;4938816;28;20640;-76
2022/09/10 13:29:05;;;;;;;1.50;0.90;;;21.10;98.20;;;;;;4924319;28;20483;-77
2022/09/10 13:31:37;;;;;;;1.50;0.90;;;20.90;98.20;;;;;;4955562;28;20475;-78
2022/09/10 13:34:40;;;;;;;1.50;0.90;;;20.90;98.20;;;;;;4960232;28;20477;-76
2022/09/10 13:37:45;;;;;;;1.50;0.90;;;20.80;98.20;;;;;;4948882;28;20491;-76
2022/09/10 13:40:45;;;;;;;1.50;0.90;;;20.80;98.20;;;;;;4962525;28;20521;-76
2022/09/10 13:43:27;;;;;;;1.50;0.90;;;20.70;98.20;;;;;;4932472;28;20485;-76
2022/09/10 13:46:03;;;;;;;1.50;0.90;;;20.70;98.20;;;;;;4951774;28;20928;-76
2022/09/10 13:48:44;;;;;;;1.50;0.87;;;20.70;98.20;;;;;;4962544;28;20485;-77
2022/09/10 13:51:24;;;;;;;1.50;0.90;;;20.70;98.20;;;;;;4947059;28;20490;-77